sensor_id;sensor_type;location;lat;lon;timestamp;pressure;altitude;pressure_sealevel;temperature
15626;BMP180;7912;51.376;6.126;2022-11-03T00:02:11;101292.00;;;15.30
15626;BMP180;7912;51.376;6.126;2022-11-03T00:04:39;101291.00;;;15.30
15626;BMP180;7912;51.376;6.126;2022-11-03T00:07:07;101272.00;;;15.20
15626;BMP180;7912;51.376;6.126;2022-11-03T00:09:35;101276.00;;;15.20
15626;BMP180;7912;51.376;6.126;2022-11-03T00:12:03;101264.00;;;15.20
15626;BMP180;7912;51.376;6.126;2022-11-03T00:14:31;101264.00;;;15.20
15626;BMP180;7912;51.376;6.126;2022-11-03T00:17:00;101270.00;;;15.10
15626;BMP180;7912;51.376;6.126;2022-11-03T00:19:33;101261.00;;;15.10
15626;BMP180;7912;51.376;6.126;2022-11-03T00:22:02;101273.00;;;15.10
15626;BMP180;7912;51.376;6.126;2022-11-03T00:24:36;101249.00;;;15.10
15626;BMP180;7912;51.376;6.126;2022-11-03T00:27:10;101260.00;;;15.10
15626;BMP180;7912;51.376;6.126;2022-11-03T00:29:38;101258.00;;;15.00
15626;BMP180;7912;51.376;6.126;2022-11-03T00:32:06;101252.00;;;15.00
15626;BMP180;7912;51.376;6.126;2022-11-03T00:34:34;101254.00;;;15.00
15626;BMP180;7912;51.376;6.126;2022-11-03T00:37:03;101256.00;;;15.00
15626;BMP180;7912;51.376;6.126;2022-11-03T00:39:30;101255.00;;;15.00
15626;BMP180;7912;51.376;6.126;2022-11-03T00:41:57;101251.00;;;14.90
15626;BMP180;7912;51.376;6.126;2022-11-03T00:44:24;101238.00;;;14.90
15626;BMP180;7912;51.376;6.126;2022-11-03T00:46:53;101252.00;;;14.90
15626;BMP180;7912;51.376;6.126;2022-11-03T00:49:20;101252.00;;;14.80
15626;BMP180;7912;51.376;6.126;2022-11-03T00:51:47;101246.00;;;14.80
15626;BMP180;7912;51.376;6.126;2022-11-03T00:54:15;101231.00;;;14.80
15626;BMP180;7912;51.376;6.126;2022-11-03T00:56:42;101224.00;;;14.80
15626;BMP180;7912;51.376;6.126;2022-11-03T00:59:10;101233.00;;;14.80
15626;BMP180;7912;51.376;6.126;2022-11-03T01:01:43;101226.00;;;14.80
15626;BMP180;7912;51.376;6.126;2022-11-03T01:04:15;101218.00;;;14.80
15626;BMP180;7912;51.376;6.126;2022-11-03T01:07:04;101207.00;;;14.80
15626;BMP180;7912;51.376;6.126;2022-11-03T01:09:40;101217.00;;;14.80
15626;BMP180;7912;51.376;6.126;2022-11-03T01:12:11;101208.00;;;14.80
15626;BMP180;7912;51.376;6.126;2022-11-03T01:14:49;101204.00;;;14.80
15626;BMP180;7912;51.376;6.126;2022-11-03T01:17:20;101177.00;;;14.80
15626;BMP180;7912;51.376;6.126;2022-11-03T01:19:47;101191.00;;;14.80
15626;BMP180;7912;51.376;6.126;2022-11-03T01:25:40;101190.00;;;14.80
15626;BMP180;7912;51.376;6.126;2022-11-03T01:28:07;101176.00;;;14.70
15626;BMP180;7912;51.376;6.126;2022-11-03T01:30:34;101182.00;;;14.80
15626;BMP180;7912;51.376;6.126;2022-11-03T01:33:02;101179.00;;;14.80
15626;BMP180;7912;51.376;6.126;2022-11-03T01:35:30;101169.00;;;14.80
15626;BMP180;7912;51.376;6.126;2022-11-03T01:37:57;101162.00;;;14.80
15626;BMP180;7912;51.376;6.126;2022-11-03T01:40:25;101176.00;;;14.80
15626;BMP180;7912;51.376;6.126;2022-11-03T01:42:52;101170.00;;;14.80
15626;BMP180;7912;51.376;6.126;2022-11-03T01:45:20;101165.00;;;14.80
15626;BMP180;7912;51.376;6.126;2022-11-03T01:47:49;101160.00;;;14.80
15626;BMP180;7912;51.376;6.126;2022-11-03T01:50:18;101156.00;;;14.80
15626;BMP180;7912;51.376;6.126;2022-11-03T01:52:56;101159.00;;;14.90
15626;BMP180;7912;51.376;6.126;2022-11-03T01:55:35;101143.00;;;14.90
15626;BMP180;7912;51.376;6.126;2022-11-03T01:58:32;101137.00;;;14.90
15626;BMP180;7912;51.376;6.126;2022-11-03T02:01:01;101135.00;;;14.90
15626;BMP180;7912;51.376;6.126;2022-11-03T02:03:38;101142.00;;;14.90
15626;BMP180;7912;51.376;6.126;2022-11-03T02:06:08;101116.00;;;14.90
15626;BMP180;7912;51.376;6.126;2022-11-03T02:08:47;101129.00;;;14.90
15626;BMP180;7912;51.376;6.126;2022-11-03T02:11:16;101117.00;;;14.90
15626;BMP180;7912;51.376;6.126;2022-11-03T02:14:03;101128.00;;;14.90
15626;BMP180;7912;51.376;6.126;2022-11-03T02:16:32;101119.00;;;14.90
15626;BMP180;7912;51.376;6.126;2022-11-03T02:19:03;101109.00;;;14.90
15626;BMP180;7912;51.376;6.126;2022-11-03T02:24:33;101119.00;;;14.90
15626;BMP180;7912;51.376;6.126;2022-11-03T02:27:02;101106.00;;;14.90
15626;BMP180;7912;51.376;6.126;2022-11-03T02:29:30;101088.00;;;14.90
15626;BMP180;7912;51.376;6.126;2022-11-03T02:32:07;101084.00;;;14.90
15626;BMP180;7912;51.376;6.126;2022-11-03T02:35:11;101081.00;;;14.90
15626;BMP180;7912;51.376;6.126;2022-11-03T02:37:46;101086.00;;;14.80
15626;BMP180;7912;51.376;6.126;2022-11-03T02:40:24;101088.00;;;14.90
15626;BMP180;7912;51.376;6.126;2022-11-03T02:42:53;101091.00;;;14.90
15626;BMP180;7912;51.376;6.126;2022-11-03T02:45:24;101076.00;;;14.90
15626;BMP180;7912;51.376;6.126;2022-11-03T02:47:58;101078.00;;;14.90
15626;BMP180;7912;51.376;6.126;2022-11-03T02:50:30;101074.00;;;14.90
15626;BMP180;7912;51.376;6.126;2022-11-03T02:52:58;101068.00;;;14.90
15626;BMP180;7912;51.376;6.126;2022-11-03T02:55:53;101053.00;;;14.90
15626;BMP180;7912;51.376;6.126;2022-11-03T02:58:53;101052.00;;;14.80
15626;BMP180;7912;51.376;6.126;2022-11-03T03:01:43;101051.00;;;14.80
15626;BMP180;7912;51.376;6.126;2022-11-03T03:04:35;101047.00;;;14.80
15626;BMP180;7912;51.376;6.126;2022-11-03T03:07:13;101032.00;;;14.70
15626;BMP180;7912;51.376;6.126;2022-11-03T03:09:57;101032.00;;;14.80
15626;BMP180;7912;51.376;6.126;2022-11-03T03:12:27;101037.00;;;14.80
15626;BMP180;7912;51.376;6.126;2022-11-03T03:15:00;101050.00;;;14.80
15626;BMP180;7912;51.376;6.126;2022-11-03T03:17:50;101026.00;;;14.80
15626;BMP180;7912;51.376;6.126;2022-11-03T03:20:36;101020.00;;;14.80
15626;BMP180;7912;51.376;6.126;2022-11-03T03:23:30;101020.00;;;14.70
15626;BMP180;7912;51.376;6.126;2022-11-03T03:26:22;101021.00;;;14.70
15626;BMP180;7912;51.376;6.126;2022-11-03T03:29:03;101022.00;;;14.70
15626;BMP180;7912;51.376;6.126;2022-11-03T03:31:37;101016.00;;;14.70
15626;BMP180;7912;51.376;6.126;2022-11-03T03:34:08;101004.00;;;14.70
15626;BMP180;7912;51.376;6.126;2022-11-03T03:36:58;101018.00;;;14.70
15626;BMP180;7912;51.376;6.126;2022-11-03T03:39:34;101005.00;;;14.80
15626;BMP180;7912;51.376;6.126;2022-11-03T03:42:06;101009.00;;;14.80
15626;BMP180;7912;51.376;6.126;2022-11-03T03:44:37;101006.00;;;14.80
15626;BMP180;7912;51.376;6.126;2022-11-03T03:47:13;101007.00;;;14.80
15626;BMP180;7912;51.376;6.126;2022-11-03T03:49:41;101004.00;;;14.80
15626;BMP180;7912;51.376;6.126;2022-11-03T03:52:08;100994.00;;;14.80
15626;BMP180;7912;51.376;6.126;2022-11-03T03:54:36;100992.00;;;14.90
15626;BMP180;7912;51.376;6.126;2022-11-03T03:57:06;100983.00;;;14.90
15626;BMP180;7912;51.376;6.126;2022-11-03T03:59:37;100980.00;;;14.80
15626;BMP180;7912;51.376;6.126;2022-11-03T04:02:05;100973.00;;;14.80
15626;BMP180;7912;51.376;6.126;2022-11-03T04:04:33;100972.00;;;14.90
15626;BMP180;7912;51.376;6.126;2022-11-03T04:07:00;100991.00;;;14.90
15626;BMP180;7912;51.376;6.126;2022-11-03T04:09:47;100982.00;;;14.90
15626;BMP180;7912;51.376;6.126;2022-11-03T04:12:15;100985.00;;;14.90
15626;BMP180;7912;51.376;6.126;2022-11-03T04:15:02;100977.00;;;14.90
15626;BMP180;7912;51.376;6.126;2022-11-03T04:18:31;100970.00;;;14.90
15626;BMP180;7912;51.376;6.126;2022-11-03T04:21:18;100952.00;;;14.80
15626;BMP180;7912;51.376;6.126;2022-11-03T04:24:05;100942.00;;;14.80
15626;BMP180;7912;51.376;6.126;2022-11-03T04:26:33;100940.00;;;14.80
15626;BMP180;7912;51.376;6.126;2022-11-03T04:29:06;100951.00;;;14.90
15626;BMP180;7912;51.376;6.126;2022-11-03T04:31:37;100940.00;;;14.90
15626;BMP180;7912;51.376;6.126;2022-11-03T04:34:11;100950.00;;;14.90
15626;BMP180;7912;51.376;6.126;2022-11-03T04:36:39;100923.00;;;14.90
15626;BMP180;7912;51.376;6.126;2022-11-03T04:39:18;100930.00;;;14.90
15626;BMP180;7912;51.376;6.126;2022-11-03T04:41:47;100933.00;;;15.00
15626;BMP180;7912;51.376;6.126;2022-11-03T04:44:16;100923.00;;;15.00
15626;BMP180;7912;51.376;6.126;2022-11-03T04:46:45;100934.00;;;15.00
15626;BMP180;7912;51.376;6.126;2022-11-03T04:49:21;100920.00;;;15.00
15626;BMP180;7912;51.376;6.126;2022-11-03T04:51:50;100933.00;;;15.00
15626;BMP180;7912;51.376;6.126;2022-11-03T04:54:21;100928.00;;;15.00
15626;BMP180;7912;51.376;6.126;2022-11-03T04:56:50;100924.00;;;15.10
15626;BMP180;7912;51.376;6.126;2022-11-03T04:59:19;100917.00;;;15.10
15626;BMP180;7912;51.376;6.126;2022-11-03T05:01:47;100922.00;;;15.10
15626;BMP180;7912;51.376;6.126;2022-11-03T05:04:18;100908.00;;;15.10
15626;BMP180;7912;51.376;6.126;2022-11-03T05:06:52;100890.00;;;15.10
15626;BMP180;7912;51.376;6.126;2022-11-03T05:09:29;100900.00;;;15.10
15626;BMP180;7912;51.376;6.126;2022-11-03T05:11:58;100899.00;;;15.20
15626;BMP180;7912;51.376;6.126;2022-11-03T05:14:31;100886.00;;;15.10
15626;BMP180;7912;51.376;6.126;2022-11-03T05:17:10;100883.00;;;15.20
15626;BMP180;7912;51.376;6.126;2022-11-03T05:19:42;100894.00;;;15.20
15626;BMP180;7912;51.376;6.126;2022-11-03T05:22:23;100882.00;;;15.20
15626;BMP180;7912;51.376;6.126;2022-11-03T05:25:02;100874.00;;;15.20
15626;BMP180;7912;51.376;6.126;2022-11-03T05:27:34;100871.00;;;15.20
15626;BMP180;7912;51.376;6.126;2022-11-03T05:30:11;100861.00;;;15.30
15626;BMP180;7912;51.376;6.126;2022-11-03T05:32:40;100858.00;;;15.30
15626;BMP180;7912;51.376;6.126;2022-11-03T05:35:21;100871.00;;;15.30
15626;BMP180;7912;51.376;6.126;2022-11-03T05:37:50;100865.00;;;15.30
15626;BMP180;7912;51.376;6.126;2022-11-03T05:40:25;100864.00;;;15.40
15626;BMP180;7912;51.376;6.126;2022-11-03T05:43:01;100863.00;;;15.40
15626;BMP180;7912;51.376;6.126;2022-11-03T05:45:33;100834.00;;;15.40
15626;BMP180;7912;51.376;6.126;2022-11-03T05:48:11;100845.00;;;15.40
15626;BMP180;7912;51.376;6.126;2022-11-03T05:50:41;100847.00;;;15.40
15626;BMP180;7912;51.376;6.126;2022-11-03T05:53:38;100843.00;;;15.40
15626;BMP180;7912;51.376;6.126;2022-11-03T05:56:20;100819.00;;;15.40
15626;BMP180;7912;51.376;6.126;2022-11-03T05:58:51;100833.00;;;15.40
15626;BMP180;7912;51.376;6.126;2022-11-03T06:01:33;100831.00;;;15.50
15626;BMP180;7912;51.376;6.126;2022-11-03T06:04:32;100828.00;;;15.40
15626;BMP180;7912;51.376;6.126;2022-11-03T06:07:23;100831.00;;;15.50
15626;BMP180;7912;51.376;6.126;2022-11-03T06:09:55;100820.00;;;15.50
15626;BMP180;7912;51.376;6.126;2022-11-03T06:12:24;100811.00;;;15.50
15626;BMP180;7912;51.376;6.126;2022-11-03T06:14:52;100804.00;;;15.50
15626;BMP180;7912;51.376;6.126;2022-11-03T06:17:26;100811.00;;;15.50
15626;BMP180;7912;51.376;6.126;2022-11-03T06:19:59;100814.00;;;15.50
15626;BMP180;7912;51.376;6.126;2022-11-03T06:22:30;100805.00;;;15.40
15626;BMP180;7912;51.376;6.126;2022-11-03T06:27:45;100811.00;;;15.40
15626;BMP180;7912;51.376;6.126;2022-11-03T06:30:28;100808.00;;;15.40
15626;BMP180;7912;51.376;6.126;2022-11-03T06:33:03;100808.00;;;15.40
15626;BMP180;7912;51.376;6.126;2022-11-03T06:35:34;100795.00;;;15.30
15626;BMP180;7912;51.376;6.126;2022-11-03T06:38:01;100797.00;;;15.40
15626;BMP180;7912;51.376;6.126;2022-11-03T06:40:34;100794.00;;;15.30
15626;BMP180;7912;51.376;6.126;2022-11-03T06:43:21;100784.00;;;15.40
15626;BMP180;7912;51.376;6.126;2022-11-03T06:46:00;100787.00;;;15.40
15626;BMP180;7912;51.376;6.126;2022-11-03T06:48:34;100796.00;;;15.40
15626;BMP180;7912;51.376;6.126;2022-11-03T06:51:13;100787.00;;;15.40
15626;BMP180;7912;51.376;6.126;2022-11-03T06:53:41;100781.00;;;15.40
15626;BMP180;7912;51.376;6.126;2022-11-03T06:56:22;100773.00;;;15.40
15626;BMP180;7912;51.376;6.126;2022-11-03T06:58:53;100780.00;;;15.40
15626;BMP180;7912;51.376;6.126;2022-11-03T07:01:31;100768.00;;;15.40
15626;BMP180;7912;51.376;6.126;2022-11-03T07:04:36;100763.00;;;15.40
15626;BMP180;7912;51.376;6.126;2022-11-03T07:07:03;100764.00;;;15.40
15626;BMP180;7912;51.376;6.126;2022-11-03T07:09:31;100763.00;;;15.50
15626;BMP180;7912;51.376;6.126;2022-11-03T07:11:59;100752.00;;;15.50
15626;BMP180;7912;51.376;6.126;2022-11-03T07:14:33;100757.00;;;15.50
15626;BMP180;7912;51.376;6.126;2022-11-03T07:17:04;100753.00;;;15.50
15626;BMP180;7912;51.376;6.126;2022-11-03T07:19:38;100760.00;;;15.60
15626;BMP180;7912;51.376;6.126;2022-11-03T07:22:21;100754.00;;;15.60
15626;BMP180;7912;51.376;6.126;2022-11-03T07:24:54;100738.00;;;15.60
15626;BMP180;7912;51.376;6.126;2022-11-03T07:27:30;100757.00;;;15.60
15626;BMP180;7912;51.376;6.126;2022-11-03T07:30:23;100758.00;;;15.60
15626;BMP180;7912;51.376;6.126;2022-11-03T07:32:59;100746.00;;;15.60
15626;BMP180;7912;51.376;6.126;2022-11-03T07:35:35;100744.00;;;15.60
15626;BMP180;7912;51.376;6.126;2022-11-03T07:38:26;100740.00;;;15.60
15626;BMP180;7912;51.376;6.126;2022-11-03T07:40:56;100727.00;;;15.60
15626;BMP180;7912;51.376;6.126;2022-11-03T07:43:49;100732.00;;;15.70
15626;BMP180;7912;51.376;6.126;2022-11-03T07:46:25;100737.00;;;15.70
15626;BMP180;7912;51.376;6.126;2022-11-03T07:49:07;100725.00;;;15.70
15626;BMP180;7912;51.376;6.126;2022-11-03T07:51:42;100721.00;;;15.70
15626;BMP180;7912;51.376;6.126;2022-11-03T07:54:33;100720.00;;;15.80
15626;BMP180;7912;51.376;6.126;2022-11-03T07:57:12;100717.00;;;15.80
15626;BMP180;7912;51.376;6.126;2022-11-03T07:59:47;100716.00;;;15.90
15626;BMP180;7912;51.376;6.126;2022-11-03T08:05:14;100706.00;;;15.90
15626;BMP180;7912;51.376;6.126;2022-11-03T08:07:42;100708.00;;;15.90
15626;BMP180;7912;51.376;6.126;2022-11-03T08:10:10;100709.00;;;16.00
15626;BMP180;7912;51.376;6.126;2022-11-03T08:12:40;100691.00;;;16.00
15626;BMP180;7912;51.376;6.126;2022-11-03T08:15:09;100701.00;;;16.10
15626;BMP180;7912;51.376;6.126;2022-11-03T08:17:37;100698.00;;;16.10
15626;BMP180;7912;51.376;6.126;2022-11-03T08:20:05;100695.00;;;16.20
15626;BMP180;7912;51.376;6.126;2022-11-03T08:22:34;100700.00;;;16.30
15626;BMP180;7912;51.376;6.126;2022-11-03T08:25:02;100697.00;;;16.30
15626;BMP180;7912;51.376;6.126;2022-11-03T08:27:31;100688.00;;;16.40
15626;BMP180;7912;51.376;6.126;2022-11-03T08:29:58;100684.00;;;16.40
15626;BMP180;7912;51.376;6.126;2022-11-03T08:32:26;100682.00;;;16.40
15626;BMP180;7912;51.376;6.126;2022-11-03T08:34:54;100674.00;;;16.50
15626;BMP180;7912;51.376;6.126;2022-11-03T08:37:23;100668.00;;;16.50
15626;BMP180;7912;51.376;6.126;2022-11-03T08:39:51;100665.00;;;16.60
15626;BMP180;7912;51.376;6.126;2022-11-03T08:50:13;100648.00;;;16.60
15626;BMP180;7912;51.376;6.126;2022-11-03T08:52:41;100634.00;;;16.70
15626;BMP180;7912;51.376;6.126;2022-11-03T08:55:09;100625.00;;;16.70
15626;BMP180;7912;51.376;6.126;2022-11-03T08:57:37;100618.00;;;16.80
15626;BMP180;7912;51.376;6.126;2022-11-03T09:00:06;100630.00;;;16.90
15626;BMP180;7912;51.376;6.126;2022-11-03T09:02:35;100607.00;;;17.00
15626;BMP180;7912;51.376;6.126;2022-11-03T09:05:03;100602.00;;;17.10
15626;BMP180;7912;51.376;6.126;2022-11-03T09:07:32;100586.00;;;17.20
15626;BMP180;7912;51.376;6.126;2022-11-03T09:10:21;100597.00;;;17.20
15626;BMP180;7912;51.376;6.126;2022-11-03T09:12:59;100580.00;;;17.30
15626;BMP180;7912;51.376;6.126;2022-11-03T09:15:28;100574.00;;;17.30
15626;BMP180;7912;51.376;6.126;2022-11-03T09:17:56;100567.00;;;17.40
15626;BMP180;7912;51.376;6.126;2022-11-03T09:20:24;100556.00;;;17.50
15626;BMP180;7912;51.376;6.126;2022-11-03T09:22:53;100549.00;;;17.50
15626;BMP180;7912;51.376;6.126;2022-11-03T09:25:21;100530.00;;;17.60
15626;BMP180;7912;51.376;6.126;2022-11-03T09:27:49;100526.00;;;17.60
15626;BMP180;7912;51.376;6.126;2022-11-03T09:30:17;100519.00;;;17.70
15626;BMP180;7912;51.376;6.126;2022-11-03T09:32:47;100519.00;;;17.80
15626;BMP180;7912;51.376;6.126;2022-11-03T09:35:52;100511.00;;;17.80
15626;BMP180;7912;51.376;6.126;2022-11-03T09:42:56;100488.00;;;17.80
15626;BMP180;7912;51.376;6.126;2022-11-03T09:45:26;100497.00;;;17.90
15626;BMP180;7912;51.376;6.126;2022-11-03T09:47:54;100503.00;;;18.00
15626;BMP180;7912;51.376;6.126;2022-11-03T09:50:23;100496.00;;;18.10
15626;BMP180;7912;51.376;6.126;2022-11-03T09:52:51;100470.00;;;18.10
15626;BMP180;7912;51.376;6.126;2022-11-03T09:55:25;100467.00;;;18.10
15626;BMP180;7912;51.376;6.126;2022-11-03T09:58:00;100461.00;;;18.20
15626;BMP180;7912;51.376;6.126;2022-11-03T10:00:28;100451.00;;;18.10
15626;BMP180;7912;51.376;6.126;2022-11-03T10:02:56;100452.00;;;18.20
15626;BMP180;7912;51.376;6.126;2022-11-03T10:05:28;100453.00;;;18.20
15626;BMP180;7912;51.376;6.126;2022-11-03T10:08:05;100440.00;;;18.20
15626;BMP180;7912;51.376;6.126;2022-11-03T10:10:34;100440.00;;;18.30
15626;BMP180;7912;51.376;6.126;2022-11-03T10:13:04;100432.00;;;18.30
15626;BMP180;7912;51.376;6.126;2022-11-03T10:15:41;100439.00;;;18.40
15626;BMP180;7912;51.376;6.126;2022-11-03T10:18:09;100421.00;;;18.40
15626;BMP180;7912;51.376;6.126;2022-11-03T10:20:36;100413.00;;;18.40
15626;BMP180;7912;51.376;6.126;2022-11-03T10:23:06;100423.00;;;18.40
15626;BMP180;7912;51.376;6.126;2022-11-03T10:25:43;100418.00;;;18.50
15626;BMP180;7912;51.376;6.126;2022-11-03T10:31:06;100410.00;;;18.60
15626;BMP180;7912;51.376;6.126;2022-11-03T10:33:54;100405.00;;;18.60
15626;BMP180;7912;51.376;6.126;2022-11-03T10:36:28;100392.00;;;18.60
15626;BMP180;7912;51.376;6.126;2022-11-03T10:38:58;100401.00;;;18.60
15626;BMP180;7912;51.376;6.126;2022-11-03T10:41:31;100394.00;;;18.60
15626;BMP180;7912;51.376;6.126;2022-11-03T10:44:20;100387.00;;;18.50
15626;BMP180;7912;51.376;6.126;2022-11-03T10:47:00;100388.00;;;18.50
15626;BMP180;7912;51.376;6.126;2022-11-03T10:49:31;100380.00;;;18.50
15626;BMP180;7912;51.376;6.126;2022-11-03T10:52:26;100374.00;;;18.50
15626;BMP180;7912;51.376;6.126;2022-11-03T10:54:57;100375.00;;;18.50
15626;BMP180;7912;51.376;6.126;2022-11-03T10:57:27;100364.00;;;18.50
15626;BMP180;7912;51.376;6.126;2022-11-03T10:59:55;100368.00;;;18.50
15626;BMP180;7912;51.376;6.126;2022-11-03T11:02:32;100354.00;;;18.50
15626;BMP180;7912;51.376;6.126;2022-11-03T11:05:20;100353.00;;;18.50
15626;BMP180;7912;51.376;6.126;2022-11-03T11:07:53;100348.00;;;18.60
15626;BMP180;7912;51.376;6.126;2022-11-03T11:10:29;100345.00;;;18.70
15626;BMP180;7912;51.376;6.126;2022-11-03T11:16:01;100341.00;;;18.70
15626;BMP180;7912;51.376;6.126;2022-11-03T11:26:30;100311.00;;;18.90
15626;BMP180;7912;51.376;6.126;2022-11-03T11:31:40;100308.00;;;18.90
15626;BMP180;7912;51.376;6.126;2022-11-03T11:42:19;100287.00;;;18.80
15626;BMP180;7912;51.376;6.126;2022-11-03T11:45:07;100285.00;;;18.80
15626;BMP180;7912;51.376;6.126;2022-11-03T11:47:46;100268.00;;;18.80
15626;BMP180;7912;51.376;6.126;2022-11-03T11:50:26;100261.00;;;18.80
15626;BMP180;7912;51.376;6.126;2022-11-03T11:53:13;100260.00;;;18.80
15626;BMP180;7912;51.376;6.126;2022-11-03T11:56:11;100241.00;;;18.90
15626;BMP180;7912;51.376;6.126;2022-11-03T11:58:52;100226.00;;;19.00
15626;BMP180;7912;51.376;6.126;2022-11-03T12:01:32;100213.00;;;19.00
15626;BMP180;7912;51.376;6.126;2022-11-03T12:04:25;100203.00;;;19.10
15626;BMP180;7912;51.376;6.126;2022-11-03T12:06:59;100213.00;;;19.10
15626;BMP180;7912;51.376;6.126;2022-11-03T12:09:27;100198.00;;;19.20
15626;BMP180;7912;51.376;6.126;2022-11-03T12:11:59;100200.00;;;19.20
15626;BMP180;7912;51.376;6.126;2022-11-03T12:14:38;100191.00;;;19.30
15626;BMP180;7912;51.376;6.126;2022-11-03T12:19:46;100190.00;;;19.50
15626;BMP180;7912;51.376;6.126;2022-11-03T12:24:50;100175.00;;;19.70
15626;BMP180;7912;51.376;6.126;2022-11-03T12:29:58;100163.00;;;19.70
15626;BMP180;7912;51.376;6.126;2022-11-03T12:32:26;100147.00;;;19.70
15626;BMP180;7912;51.376;6.126;2022-11-03T12:35:07;100145.00;;;19.60
15626;BMP180;7912;51.376;6.126;2022-11-03T12:37:36;100140.00;;;19.60
15626;BMP180;7912;51.376;6.126;2022-11-03T12:40:04;100127.00;;;19.50
15626;BMP180;7912;51.376;6.126;2022-11-03T12:42:32;100130.00;;;19.60
15626;BMP180;7912;51.376;6.126;2022-11-03T12:44:59;100118.00;;;19.50
15626;BMP180;7912;51.376;6.126;2022-11-03T12:47:33;100118.00;;;19.50
15626;BMP180;7912;51.376;6.126;2022-11-03T12:50:06;100120.00;;;19.50
15626;BMP180;7912;51.376;6.126;2022-11-03T12:52:33;100117.00;;;19.60
15626;BMP180;7912;51.376;6.126;2022-11-03T12:55:01;100104.00;;;19.60
15626;BMP180;7912;51.376;6.126;2022-11-03T12:57:28;100109.00;;;19.60
15626;BMP180;7912;51.376;6.126;2022-11-03T13:00:00;100083.00;;;19.60
15626;BMP180;7912;51.376;6.126;2022-11-03T13:02:27;100090.00;;;19.60
15626;BMP180;7912;51.376;6.126;2022-11-03T13:04:55;100069.00;;;19.60
15626;BMP180;7912;51.376;6.126;2022-11-03T13:07:23;100058.00;;;19.60
15626;BMP180;7912;51.376;6.126;2022-11-03T13:09:59;100035.00;;;19.60
15626;BMP180;7912;51.376;6.126;2022-11-03T13:12:27;100045.00;;;19.70
15626;BMP180;7912;51.376;6.126;2022-11-03T13:15:01;100045.00;;;19.60
15626;BMP180;7912;51.376;6.126;2022-11-03T13:17:29;100034.00;;;19.50
15626;BMP180;7912;51.376;6.126;2022-11-03T13:20:07;100021.00;;;19.40
15626;BMP180;7912;51.376;6.126;2022-11-03T13:22:36;100016.00;;;19.30
15626;BMP180;7912;51.376;6.126;2022-11-03T13:25:06;100018.00;;;19.20
15626;BMP180;7912;51.376;6.126;2022-11-03T13:27:38;100009.00;;;19.10
15626;BMP180;7912;51.376;6.126;2022-11-03T13:30:07;100014.00;;;19.00
15626;BMP180;7912;51.376;6.126;2022-11-03T13:32:35;99988.00;;;19.00
15626;BMP180;7912;51.376;6.126;2022-11-03T13:35:03;99995.00;;;18.90
15626;BMP180;7912;51.376;6.126;2022-11-03T13:37:39;99999.00;;;18.80
15626;BMP180;7912;51.376;6.126;2022-11-03T13:40:09;99996.00;;;18.80
15626;BMP180;7912;51.376;6.126;2022-11-03T13:42:58;99992.00;;;18.80
15626;BMP180;7912;51.376;6.126;2022-11-03T13:45:27;99978.00;;;18.80
15626;BMP180;7912;51.376;6.126;2022-11-03T13:47:56;99979.00;;;18.70
15626;BMP180;7912;51.376;6.126;2022-11-03T13:50:45;99970.00;;;18.70
15626;BMP180;7912;51.376;6.126;2022-11-03T13:53:18;99943.00;;;18.60
15626;BMP180;7912;51.376;6.126;2022-11-03T13:56:06;99947.00;;;18.60
15626;BMP180;7912;51.376;6.126;2022-11-03T13:58:41;99953.00;;;18.60
15626;BMP180;7912;51.376;6.126;2022-11-03T14:01:30;99938.00;;;18.60
15626;BMP180;7912;51.376;6.126;2022-11-03T14:03:59;99946.00;;;18.70
15626;BMP180;7912;51.376;6.126;2022-11-03T14:06:48;99948.00;;;18.60
15626;BMP180;7912;51.376;6.126;2022-11-03T14:09:16;99952.00;;;18.60
15626;BMP180;7912;51.376;6.126;2022-11-03T14:11:44;99978.00;;;18.50
15626;BMP180;7912;51.376;6.126;2022-11-03T14:14:36;99983.00;;;18.40
15626;BMP180;7912;51.376;6.126;2022-11-03T14:17:26;99981.00;;;18.30
15626;BMP180;7912;51.376;6.126;2022-11-03T14:20:05;99983.00;;;18.20
15626;BMP180;7912;51.376;6.126;2022-11-03T14:22:38;99978.00;;;18.00
15626;BMP180;7912;51.376;6.126;2022-11-03T14:25:20;99968.00;;;17.90
15626;BMP180;7912;51.376;6.126;2022-11-03T14:27:48;99978.00;;;17.80
15626;BMP180;7912;51.376;6.126;2022-11-03T14:30:20;99978.00;;;17.70
15626;BMP180;7912;51.376;6.126;2022-11-03T14:32:56;99976.00;;;17.60
15626;BMP180;7912;51.376;6.126;2022-11-03T14:35:26;99982.00;;;17.60
15626;BMP180;7912;51.376;6.126;2022-11-03T14:37:56;99971.00;;;17.60
15626;BMP180;7912;51.376;6.126;2022-11-03T14:40:25;99976.00;;;17.50
15626;BMP180;7912;51.376;6.126;2022-11-03T14:43:16;99976.00;;;17.50
15626;BMP180;7912;51.376;6.126;2022-11-03T14:45:45;99961.00;;;17.50
15626;BMP180;7912;51.376;6.126;2022-11-03T14:48:13;99948.00;;;17.40
15626;BMP180;7912;51.376;6.126;2022-11-03T14:50:42;99950.00;;;17.40
15626;BMP180;7912;51.376;6.126;2022-11-03T14:56:43;99945.00;;;17.30
15626;BMP180;7912;51.376;6.126;2022-11-03T14:59:26;99933.00;;;17.20
15626;BMP180;7912;51.376;6.126;2022-11-03T15:02:05;99924.00;;;17.10
15626;BMP180;7912;51.376;6.126;2022-11-03T15:04:49;99920.00;;;17.00
15626;BMP180;7912;51.376;6.126;2022-11-03T15:07:30;99918.00;;;16.90
15626;BMP180;7912;51.376;6.126;2022-11-03T15:09:59;99909.00;;;16.80
15626;BMP180;7912;51.376;6.126;2022-11-03T15:12:28;99915.00;;;16.70
15626;BMP180;7912;51.376;6.126;2022-11-03T15:14:57;99912.00;;;16.70
15626;BMP180;7912;51.376;6.126;2022-11-03T15:17:26;99883.00;;;16.60
15626;BMP180;7912;51.376;6.126;2022-11-03T15:19:55;99883.00;;;16.50
15626;BMP180;7912;51.376;6.126;2022-11-03T15:22:23;99871.00;;;16.50
15626;BMP180;7912;51.376;6.126;2022-11-03T15:25:11;99884.00;;;16.50
15626;BMP180;7912;51.376;6.126;2022-11-03T15:27:39;99886.00;;;16.40
15626;BMP180;7912;51.376;6.126;2022-11-03T15:30:07;99878.00;;;16.40
15626;BMP180;7912;51.376;6.126;2022-11-03T15:32:36;99876.00;;;16.40
15626;BMP180;7912;51.376;6.126;2022-11-03T15:35:05;99865.00;;;16.40
15626;BMP180;7912;51.376;6.126;2022-11-03T15:37:34;99856.00;;;16.30
15626;BMP180;7912;51.376;6.126;2022-11-03T15:40:03;99854.00;;;16.30
15626;BMP180;7912;51.376;6.126;2022-11-03T15:42:31;99850.00;;;16.30
15626;BMP180;7912;51.376;6.126;2022-11-03T15:44:59;99832.00;;;16.30
15626;BMP180;7912;51.376;6.126;2022-11-03T15:47:28;99830.00;;;16.30
15626;BMP180;7912;51.376;6.126;2022-11-03T15:49:57;99822.00;;;16.30
15626;BMP180;7912;51.376;6.126;2022-11-03T15:52:25;99821.00;;;16.30